createdAt,value
2023-03-07T00:00:33.787Z,50.834835
2023-03-07T00:01:33.802Z,50.834846
2023-03-07T00:02:33.871Z,50.834846
2023-03-07T00:03:33.789Z,50.834854
2023-03-07T00:04:33.839Z,50.834850
2023-03-07T00:05:33.782Z,50.834835
2023-03-07T00:06:33.769Z,50.834820
2023-03-07T00:07:33.760Z,50.834820
2023-03-07T00:08:33.766Z,50.834827
2023-03-07T00:09:33.771Z,50.834850
2023-03-07T00:10:33.735Z,50.834827
2023-03-07T00:11:33.743Z,50.834820
2023-03-07T00:12:33.738Z,50.834824
2023-03-07T00:13:33.711Z,50.834827
2023-03-07T00:14:33.719Z,50.834827
2023-03-07T00:15:33.723Z,50.834801
2023-03-07T00:16:33.761Z,50.834805
2023-03-07T00:17:33.663Z,50.834831
2023-03-07T00:18:33.675Z,50.834858
2023-03-07T00:19:33.688Z,50.834854
2023-03-07T00:20:33.679Z,50.834839
2023-03-07T00:21:33.661Z,50.834812
2023-03-07T00:22:33.661Z,50.834820
2023-03-07T00:23:33.650Z,50.834812
2023-03-07T00:24:33.694Z,50.834816
2023-03-07T00:25:34.332Z,50.834831
2023-03-07T00:26:33.657Z,50.834816
2023-03-07T00:27:33.642Z,50.834816
2023-03-07T00:28:33.610Z,50.834820
2023-03-07T00:29:33.607Z,50.834820
2023-03-07T00:30:33.572Z,50.834820
2023-03-07T00:31:33.595Z,50.834827
2023-03-07T00:32:34.223Z,50.834812
2023-03-07T00:33:33.574Z,50.834820
2023-03-07T00:34:33.580Z,50.834843
2023-03-07T00:35:33.572Z,50.834827
2023-03-07T00:36:33.568Z,50.834839
2023-03-07T00:37:33.518Z,50.834831
2023-03-07T00:38:33.509Z,50.834820
2023-03-07T00:43:20.230Z,50.834862
2023-03-07T00:44:21.023Z,50.834869
2023-03-07T00:45:20.837Z,50.834858
2023-03-07T00:46:52.790Z,50.834824
2023-03-07T00:47:20.203Z,50.834816
2023-03-07T00:48:46.340Z,50.834793
2023-03-07T00:49:20.246Z,50.834797
2023-03-07T00:50:20.179Z,50.834805
2023-03-07T00:51:52.120Z,50.834812
2023-03-07T00:52:20.263Z,50.834824
2023-03-07T00:53:20.165Z,50.834824
2023-03-07T00:54:20.195Z,50.834843
2023-03-07T00:55:20.169Z,50.834824
2023-03-07T00:56:20.136Z,50.834812
2023-03-07T00:57:20.156Z,50.834805
2023-03-07T00:58:20.136Z,50.834824
2023-03-07T00:59:20.947Z,50.834824
2023-03-07T01:00:20.116Z,50.834824
2023-03-07T01:01:20.147Z,50.834835
2023-03-07T01:02:20.118Z,50.834824
2023-03-07T01:03:20.075Z,50.834839
2023-03-07T01:04:20.068Z,50.834843
2023-03-07T01:05:20.082Z,50.834808
2023-03-07T01:06:20.048Z,50.834816
2023-03-07T01:07:20.099Z,50.834835
2023-03-07T01:08:20.067Z,50.834827
2023-03-07T01:09:20.080Z,50.834808
2023-03-07T01:10:20.038Z,50.834808
2023-03-07T01:11:20.016Z,50.834789
2023-03-07T01:12:20.056Z,50.834808
2023-03-07T01:13:20.033Z,50.834843
2023-03-07T01:14:20.161Z,50.834854
2023-03-07T01:15:20.067Z,50.834778
2023-03-07T01:16:20.080Z,50.834812
2023-03-07T01:17:20.036Z,50.834824
2023-03-07T01:18:19.978Z,50.834808
2023-03-07T01:19:20.301Z,50.834820
2023-03-07T01:20:19.998Z,50.834778
2023-03-07T01:21:19.977Z,50.834774
2023-03-07T01:22:20.169Z,50.834801
2023-03-07T01:23:19.966Z,50.834816
2023-03-07T01:24:19.928Z,50.834824
2023-03-07T01:25:19.924Z,50.834808
2023-03-07T01:26:19.935Z,50.834812
2023-03-07T01:27:19.927Z,50.834820
2023-03-07T01:28:19.941Z,50.834850
2023-03-07T01:29:19.900Z,50.834839
2023-03-07T01:30:19.909Z,50.834850
2023-03-07T01:31:19.920Z,50.834808
2023-03-07T01:32:19.893Z,50.834820
2023-03-07T01:33:19.879Z,50.834827
2023-03-07T01:34:19.876Z,50.834846
2023-03-07T01:35:19.899Z,50.834812
2023-03-07T01:36:20.010Z,50.834827
2023-03-07T01:37:19.847Z,50.834850
2023-03-07T01:38:19.819Z,50.834869
2023-03-07T01:39:19.806Z,50.834846
2023-03-07T01:40:19.847Z,50.834850
2023-03-07T01:41:19.811Z,50.834824
2023-03-07T01:42:19.822Z,50.834866
2023-03-07T01:43:19.796Z,50.834850
2023-03-07T01:44:19.818Z,50.834866
2023-03-07T01:45:19.775Z,50.834854
2023-03-07T01:46:19.804Z,50.834827
2023-03-07T01:47:19.756Z,50.834827
2023-03-07T01:48:20.441Z,50.834824
2023-03-07T01:49:19.766Z,50.834801
2023-03-07T01:50:19.752Z,50.834808
2023-03-07T01:51:19.749Z,50.834778
2023-03-07T01:52:19.710Z,50.834785
2023-03-07T01:53:19.693Z,50.834805
2023-03-07T01:54:19.720Z,50.834824
2023-03-07T01:55:19.743Z,50.834782
2023-03-07T01:56:19.689Z,50.834782
2023-03-07T01:57:19.716Z,50.834843
2023-03-07T01:58:19.694Z,50.834854
2023-03-07T01:59:19.663Z,50.834888
2023-03-07T02:00:19.663Z,50.834885
2023-03-07T02:01:19.795Z,50.834827
2023-03-07T02:02:19.660Z,50.834797
2023-03-07T02:03:19.627Z,50.834763
2023-03-07T02:04:19.705Z,50.834789
2023-03-07T02:05:19.638Z,50.834797
2023-03-07T02:06:19.643Z,50.834812
2023-03-07T02:07:19.697Z,50.834824
2023-03-07T02:08:19.613Z,50.834835
2023-03-07T02:09:19.610Z,50.834854
2023-03-07T02:10:19.570Z,50.834835
2023-03-07T02:11:19.573Z,50.834805
2023-03-07T02:12:21.086Z,50.834789
2023-03-07T02:13:19.568Z,50.834797
2023-03-07T02:14:19.558Z,50.834774
2023-03-07T02:15:19.541Z,50.834805
2023-03-07T02:16:19.571Z,50.834797
2023-03-07T02:17:20.472Z,50.834801
2023-03-07T02:18:19.540Z,50.834801
2023-03-07T02:19:19.560Z,50.834801
2023-03-07T02:20:19.568Z,50.834812
2023-03-07T02:21:19.562Z,50.834770
2023-03-07T02:22:19.519Z,50.834797
2023-03-07T02:23:19.513Z,50.834797
2023-03-07T02:24:19.458Z,50.834801
2023-03-07T02:25:19.463Z,50.834785
2023-03-07T02:26:19.465Z,50.834812
2023-03-07T02:27:19.471Z,50.834793
2023-03-07T02:28:19.451Z,50.834789
2023-03-07T02:29:19.460Z,50.834797
2023-03-07T02:30:20.427Z,50.834805
2023-03-07T02:31:19.455Z,50.834816
2023-03-07T02:32:19.469Z,50.834816
2023-03-07T02:33:19.426Z,50.834820
2023-03-07T02:34:19.401Z,50.834827
2023-03-07T02:35:19.447Z,50.834812
2023-03-07T02:36:19.396Z,50.834808
2023-03-07T02:37:19.414Z,50.834808
2023-03-07T02:38:19.398Z,50.834824
2023-03-07T02:39:19.364Z,50.834789
2023-03-07T02:40:19.362Z,50.834785
2023-03-07T02:41:19.351Z,50.834789
2023-03-07T02:42:19.321Z,50.834797
2023-03-07T02:43:19.341Z,50.834778
2023-03-07T02:44:19.324Z,50.834782
2023-03-07T02:45:19.365Z,50.834785
2023-03-07T02:46:19.345Z,50.834808
2023-03-07T02:47:19.312Z,50.834808
2023-03-07T02:48:19.271Z,50.834789
2023-03-07T02:49:19.302Z,50.834793
2023-03-07T02:50:19.310Z,50.834789
2023-03-07T02:51:19.269Z,50.834797
2023-03-07T02:52:19.295Z,50.834801
2023-03-07T02:53:19.260Z,50.834805
2023-03-07T02:54:20.271Z,50.834812
2023-03-07T02:55:19.281Z,50.834797
2023-03-07T02:56:19.986Z,50.834785
2023-03-07T02:57:19.278Z,50.834785
2023-03-07T02:58:19.217Z,50.834789
2023-03-07T02:59:19.216Z,50.834789
2023-03-07T03:00:19.221Z,50.834805
2023-03-07T03:01:20.257Z,50.834789
2023-03-07T03:02:19.204Z,50.834820
2023-03-07T03:03:19.187Z,50.834782
2023-03-07T03:04:19.278Z,50.834812
2023-03-07T03:05:19.250Z,50.834812
2023-03-07T03:06:19.998Z,50.834824
2023-03-07T03:07:19.166Z,50.834801
2023-03-07T03:08:19.134Z,50.834782
2023-03-07T03:09:19.143Z,50.834785
2023-03-07T03:10:19.137Z,50.834785
2023-03-07T03:11:19.186Z,50.834782
2023-03-07T03:12:19.128Z,50.834805
2023-03-07T03:13:20.124Z,50.834805
2023-03-07T03:14:19.092Z,50.834801
2023-03-07T03:15:19.121Z,50.834820
2023-03-07T03:16:19.152Z,50.834835
2023-03-07T03:17:19.527Z,50.834805
2023-03-07T03:18:19.111Z,50.834824
2023-03-07T03:19:19.068Z,50.834839
2023-03-07T03:20:19.081Z,50.834854
2023-03-07T03:21:19.031Z,50.834831
2023-03-07T03:22:19.084Z,50.834835
2023-03-07T03:23:19.056Z,50.834816
2023-03-07T03:24:19.040Z,50.834885
2023-03-07T03:25:19.005Z,50.834839
2023-03-07T03:26:19.033Z,50.834827
2023-03-07T03:27:50.982Z,50.834778
2023-03-07T03:28:18.989Z,50.834785
2023-03-07T03:29:18.996Z,50.834805
2023-03-07T03:30:18.977Z,50.834782
2023-03-07T03:31:19.072Z,50.834805
2023-03-07T03:32:19.012Z,50.834789
2023-03-07T03:33:18.997Z,50.834820
2023-03-07T03:34:18.972Z,50.834808
2023-03-07T03:35:18.952Z,50.834805
2023-03-07T03:36:18.929Z,50.834816
2023-03-07T03:37:18.918Z,50.834793
2023-03-07T03:38:18.932Z,50.834801
2023-03-07T03:39:18.963Z,50.834846
2023-03-07T03:40:18.918Z,50.834812
2023-03-07T03:41:19.485Z,50.834808
2023-03-07T03:42:18.882Z,50.834808
2023-03-07T03:43:18.906Z,50.834824
2023-03-07T03:44:18.936Z,50.834816
2023-03-07T03:45:18.894Z,50.834808
2023-03-07T03:46:18.897Z,50.834808
2023-03-07T03:47:18.886Z,50.834835
2023-03-07T04:05:35.243Z,50.835133
2023-03-07T04:06:35.230Z,50.834835
2023-03-07T04:07:35.248Z,50.834801
2023-03-07T04:08:35.221Z,50.834793
2023-03-07T04:09:35.196Z,50.834801
2023-03-07T04:10:35.209Z,50.834812
2023-03-07T04:11:35.212Z,50.834812
2023-03-07T04:12:35.178Z,50.834816
2023-03-07T04:13:35.176Z,50.834812
2023-03-07T04:14:35.188Z,50.834793
2023-03-07T04:15:35.181Z,50.834797
2023-03-07T04:16:35.166Z,50.834805
2023-03-07T04:17:35.162Z,50.834816
2023-03-07T04:18:35.135Z,50.834797
2023-03-07T04:19:35.124Z,50.834812
2023-03-07T04:20:35.851Z,50.834801
2023-03-07T04:21:36.170Z,50.834827
2023-03-07T04:22:35.103Z,50.834789
2023-03-07T04:23:35.092Z,50.834759
2023-03-07T04:24:35.092Z,50.834812
2023-03-07T04:25:35.106Z,50.834846
2023-03-07T04:26:35.115Z,50.834766
2023-03-07T04:27:35.068Z,50.834789
2023-03-07T04:28:35.047Z,50.834831
2023-03-07T04:29:35.372Z,50.834831
2023-03-07T04:30:35.068Z,50.834831
2023-03-07T04:32:07.789Z,50.834839
2023-03-07T04:32:35.100Z,50.834827
2023-03-07T04:33:35.051Z,50.834843
2023-03-07T04:34:35.050Z,50.834835
2023-03-07T04:35:35.095Z,50.834831
2023-03-07T04:36:35.715Z,50.834835
2023-03-07T04:37:36.026Z,50.834820
2023-03-07T04:38:34.975Z,50.834827
2023-03-07T04:39:35.429Z,50.834816
2023-03-07T04:40:35.001Z,50.834835
2023-03-07T04:41:34.947Z,50.834820
2023-03-07T04:42:34.958Z,50.834835
2023-03-07T04:43:34.954Z,50.834843
2023-03-07T04:44:34.962Z,50.834839
2023-03-07T04:45:35.102Z,50.834831
2023-03-07T04:46:34.944Z,50.834850
2023-03-07T04:47:34.922Z,50.834843
2023-03-07T04:48:34.924Z,50.834835
2023-03-07T04:49:34.918Z,50.834831
2023-03-07T04:50:34.902Z,50.834862
2023-03-07T04:51:34.896Z,50.834892
2023-03-07T04:52:34.874Z,50.834862
2023-03-07T04:53:34.904Z,50.834873
2023-03-07T04:54:34.892Z,50.834888
2023-03-07T04:55:34.863Z,50.834877
2023-03-07T04:56:34.886Z,50.834881
2023-03-07T04:57:34.823Z,50.834885
2023-03-07T04:58:34.835Z,50.834892
2023-03-07T04:59:34.823Z,50.834885
2023-03-07T05:00:34.874Z,50.834873
2023-03-07T05:01:34.979Z,50.834839
2023-03-07T05:02:34.825Z,50.834839
2023-03-07T05:03:34.789Z,50.834839
2023-03-07T05:04:34.947Z,50.834866
2023-03-07T05:05:37.449Z,50.834850
2023-03-07T05:06:35.451Z,50.834862
2023-03-07T05:07:34.756Z,50.834862
2023-03-07T05:08:34.780Z,50.834846
2023-03-07T05:09:34.722Z,50.834854
2023-03-07T05:10:34.735Z,50.834858
2023-03-07T05:11:34.763Z,50.834854
2023-03-07T05:12:34.731Z,50.834866
2023-03-07T05:13:34.703Z,50.834858
2023-03-07T05:14:34.707Z,50.834854
2023-03-07T05:15:34.789Z,50.834862
2023-03-07T05:16:34.720Z,50.834866
2023-03-07T05:17:35.399Z,50.834862
2023-03-07T05:18:34.686Z,50.834858
2023-03-07T05:19:34.685Z,50.834850
2023-03-07T05:20:34.674Z,50.834877
2023-03-07T05:21:35.349Z,50.834877
2023-03-07T05:22:34.747Z,50.834881
2023-03-07T05:23:34.639Z,50.834869
2023-03-07T05:24:34.628Z,50.834839
2023-03-07T05:25:34.656Z,50.834824
2023-03-07T05:26:34.635Z,50.834827
2023-03-07T05:27:34.586Z,50.834881
2023-03-07T05:28:34.600Z,50.834873
2023-03-07T05:29:34.600Z,50.834850
2023-03-07T05:30:34.591Z,50.834862
2023-03-07T05:31:34.787Z,50.834843
2023-03-07T05:32:34.567Z,50.834850
2023-03-07T05:33:34.564Z,50.834835
2023-03-07T05:34:34.632Z,50.834854
2023-03-07T05:35:34.568Z,50.834877
2023-03-07T05:36:34.548Z,50.834869
2023-03-07T05:37:34.530Z,50.834866
2023-03-07T05:38:34.543Z,50.834862
2023-03-07T05:39:34.515Z,50.834866
2023-03-07T05:40:34.546Z,50.834869
2023-03-07T05:41:34.509Z,50.834843
2023-03-07T05:42:34.487Z,50.834843
2023-03-07T05:43:34.516Z,50.834873
2023-03-07T05:44:34.471Z,50.834877
2023-03-07T05:45:35.480Z,50.834862
2023-03-07T05:46:34.502Z,50.834873
2023-03-07T05:47:34.497Z,50.834843
2023-03-07T05:48:34.507Z,50.834846
2023-03-07T05:49:34.449Z,50.834866
2023-03-07T05:50:34.441Z,50.834831
2023-03-07T05:51:34.420Z,50.834850
2023-03-07T05:52:34.501Z,50.834846
2023-03-07T05:53:34.397Z,50.834839
2023-03-07T05:54:34.405Z,50.834831
2023-03-07T05:55:34.403Z,50.834816
2023-03-07T05:56:34.380Z,50.834839
2023-03-07T05:57:34.354Z,50.834858
2023-03-07T05:58:34.369Z,50.834843
2023-03-07T05:59:34.390Z,50.834862
2023-03-07T06:00:34.390Z,50.834873
2023-03-07T06:01:34.342Z,50.834850
2023-03-07T06:02:34.381Z,50.834831
2023-03-07T06:03:34.365Z,50.834827
2023-03-07T06:04:34.307Z,50.834831
2023-03-07T06:05:34.326Z,50.834866
2023-03-07T06:06:34.315Z,50.834839
2023-03-07T06:07:34.299Z,50.834843
2023-03-07T06:08:34.280Z,50.834839
2023-03-07T06:09:34.388Z,50.834820
2023-03-07T06:10:34.297Z,50.834835
2023-03-07T06:11:34.269Z,50.834820
2023-03-07T06:12:34.293Z,50.834827
2023-03-07T06:13:34.258Z,50.834835
2023-03-07T06:14:34.285Z,50.834808
2023-03-07T06:15:34.246Z,50.834835
2023-03-07T06:16:34.238Z,50.834839
2023-03-07T06:17:34.255Z,50.834835
2023-03-07T06:18:34.209Z,50.834831
2023-03-07T06:19:34.250Z,50.834812
2023-03-07T06:20:34.185Z,50.834839
2023-03-07T06:21:34.205Z,50.834839
2023-03-07T06:22:34.201Z,50.834843
2023-03-07T06:23:34.191Z,50.834816
2023-03-07T06:24:34.244Z,50.834827
2023-03-07T06:25:34.188Z,50.834805
2023-03-07T06:26:34.201Z,50.834820
2023-03-07T06:27:34.182Z,50.834820
2023-03-07T06:28:34.173Z,50.834816
2023-03-07T06:29:34.138Z,50.834827
2023-03-07T06:30:34.123Z,50.834812
2023-03-07T06:31:34.184Z,50.834820
2023-03-07T06:32:34.130Z,50.834812
2023-03-07T06:33:34.099Z,50.834820
2023-03-07T06:34:34.129Z,50.834824
2023-03-07T06:35:34.098Z,50.834843
2023-03-07T06:36:34.133Z,50.834816
2023-03-07T06:37:34.077Z,50.834820
2023-03-07T06:38:34.155Z,50.834824
2023-03-07T06:39:34.102Z,50.834827
2023-03-07T06:40:34.063Z,50.834820
2023-03-07T06:41:34.062Z,50.834808
2023-03-07T06:42:34.064Z,50.834827
2023-03-07T06:43:34.026Z,50.834835
2023-03-07T06:44:34.039Z,50.834831
2023-03-07T06:45:34.133Z,50.834816
2023-03-07T06:46:34.061Z,50.834808
2023-03-07T06:47:34.111Z,50.834805
2023-03-07T06:48:34.042Z,50.834812
2023-03-07T06:49:34.025Z,50.834824
2023-03-07T06:50:35.730Z,50.834816
2023-03-07T06:51:37.704Z,50.834839
2023-03-07T06:52:34.954Z,50.834805
2023-03-07T06:53:33.938Z,50.834824
2023-03-07T06:54:33.941Z,50.834839
2023-03-07T06:55:34.012Z,50.834827
2023-03-07T06:56:33.946Z,50.834816
2023-03-07T06:57:33.927Z,50.834831
2023-03-07T06:58:33.971Z,50.834820
2023-03-07T06:59:33.910Z,50.834820
2023-03-07T07:00:33.925Z,50.834831
2023-03-07T07:01:33.915Z,50.834820
2023-03-07T07:02:34.102Z,50.834820
2023-03-07T07:03:33.858Z,50.834808
2023-03-07T07:04:33.894Z,50.834820
2023-03-07T07:05:33.864Z,50.834816
2023-03-07T07:06:33.837Z,50.834805
2023-03-07T07:07:34.920Z,50.834812
2023-03-07T07:08:33.873Z,50.834816
2023-03-07T07:09:33.836Z,50.834805
2023-03-07T07:10:33.819Z,50.834808
2023-03-07T07:11:33.893Z,50.834808
2023-03-07T07:12:33.860Z,50.834816
2023-03-07T07:13:33.807Z,50.834812
2023-03-07T07:14:33.772Z,50.834812
2023-03-07T07:15:33.801Z,50.834785
2023-03-07T07:16:33.922Z,50.834801
2023-03-07T07:17:33.804Z,50.834812
2023-03-07T07:18:33.759Z,50.834824
2023-03-07T07:19:33.773Z,50.834824
2023-03-07T07:20:33.757Z,50.834801
2023-03-07T07:21:33.756Z,50.834816
2023-03-07T07:22:33.729Z,50.834801
2023-03-07T07:23:33.737Z,50.834797
2023-03-07T07:24:33.741Z,50.834843
2023-03-07T07:25:33.735Z,50.834816
2023-03-07T07:26:33.755Z,50.834808
2023-03-07T07:27:33.712Z,50.834812
2023-03-07T07:28:33.695Z,50.834797
2023-03-07T07:29:33.677Z,50.834805
2023-03-07T07:30:33.687Z,50.834816
2023-03-07T07:31:33.726Z,50.834805
2023-03-07T07:32:33.917Z,50.834808
2023-03-07T07:33:33.660Z,50.834827
2023-03-07T07:34:33.653Z,50.834824
2023-03-07T07:35:33.668Z,50.834824
2023-03-07T07:36:33.616Z,50.834839
2023-03-07T07:37:33.672Z,50.834827
2023-03-07T07:38:33.627Z,50.834824
2023-03-07T07:39:33.623Z,50.834805
2023-03-07T07:40:33.589Z,50.834812
2023-03-07T07:41:33.600Z,50.834812
2023-03-07T07:42:33.603Z,50.834816
2023-03-07T07:43:33.563Z,50.834839
2023-03-07T07:44:33.589Z,50.834816
2023-03-07T07:45:33.583Z,50.834827
2023-03-07T07:46:33.563Z,50.834824
2023-03-07T07:47:33.541Z,50.834835
2023-03-07T07:48:33.531Z,50.834846
2023-03-07T07:49:33.529Z,50.834827
2023-03-07T07:50:33.537Z,50.834824
2023-03-07T07:51:33.543Z,50.834778
2023-03-07T07:52:33.532Z,50.834827
2023-03-07T07:53:33.504Z,50.834816
2023-03-07T07:54:33.488Z,50.834827
2023-03-07T07:55:33.512Z,50.834827
2023-03-07T07:56:33.556Z,50.834824
2023-03-07T07:57:33.473Z,50.834812
2023-03-07T07:58:33.502Z,50.834808
2023-03-07T07:59:33.453Z,50.834805
2023-03-07T08:00:33.471Z,50.834808
2023-03-07T08:01:33.464Z,50.834805
2023-03-07T08:02:33.521Z,50.834801
2023-03-07T08:03:33.480Z,50.834812
2023-03-07T08:04:33.426Z,50.834820
2023-03-07T08:05:33.445Z,50.834801
2023-03-07T08:06:33.417Z,50.834812
2023-03-07T08:07:33.403Z,50.834805
2023-03-07T08:08:33.484Z,50.834797
2023-03-07T08:09:33.454Z,50.834789
2023-03-07T08:10:33.430Z,50.834793
2023-03-07T08:11:33.392Z,50.834801
2023-03-07T08:12:33.433Z,50.834805
2023-03-07T08:13:33.402Z,50.834793
2023-03-07T08:14:33.340Z,50.834797
2023-03-07T08:15:33.340Z,50.834805
2023-03-07T08:16:33.368Z,50.834812
2023-03-07T08:17:33.317Z,50.834808
2023-03-07T08:18:33.395Z,50.834797
2023-03-07T08:19:33.334Z,50.834793
2023-03-07T08:20:33.389Z,50.834785
2023-03-07T08:21:33.284Z,50.834789
2023-03-07T08:22:33.322Z,50.834770
2023-03-07T08:23:33.305Z,50.834782
2023-03-07T08:24:40.714Z,50.834774
2023-03-07T08:25:35.283Z,50.834793
2023-03-07T08:26:33.261Z,50.834801
2023-03-07T08:27:33.267Z,50.834789
2023-03-07T08:28:33.285Z,50.834774
2023-03-07T08:29:33.292Z,50.834763
2023-03-07T08:30:33.226Z,50.834774
2023-03-07T08:31:33.247Z,50.834782
2023-03-07T08:32:33.249Z,50.834793
2023-03-07T08:33:33.221Z,50.834785
2023-03-07T08:34:33.217Z,50.834789
2023-03-07T08:35:33.275Z,50.834793
2023-03-07T08:36:33.170Z,50.834774
2023-03-07T08:37:33.186Z,50.834789
2023-03-07T08:38:33.163Z,50.834785
2023-03-07T08:39:33.145Z,50.834789
2023-03-07T08:40:33.203Z,50.834797
2023-03-07T08:41:33.173Z,50.834774
2023-03-07T08:42:33.324Z,50.834782
2023-03-07T08:43:33.132Z,50.834789
2023-03-07T08:44:33.130Z,50.834785
2023-03-07T08:45:33.141Z,50.834770
2023-03-07T08:46:33.158Z,50.834778
2023-03-07T08:47:33.183Z,50.834782
2023-03-07T08:48:33.079Z,50.834789
2023-03-07T08:49:33.079Z,50.834785
2023-03-07T08:50:33.068Z,50.834770
2023-03-07T08:51:33.084Z,50.834785
2023-03-07T08:52:33.042Z,50.834797
2023-03-07T08:53:34.067Z,50.834789
2023-03-07T08:54:33.082Z,50.834785
2023-03-07T08:55:33.015Z,50.834789
2023-03-07T08:56:33.044Z,50.834789
2023-03-07T08:57:33.065Z,50.834785
2023-03-07T08:58:33.015Z,50.834785
2023-03-07T08:59:33.804Z,50.834789
2023-03-07T09:00:32.988Z,50.834774
2023-03-07T09:01:33.019Z,50.834770
2023-03-07T09:02:32.992Z,50.834778
2023-03-07T09:03:32.959Z,50.834766
2023-03-07T09:04:32.996Z,50.834766
2023-03-07T09:05:32.983Z,50.834759
2023-03-07T09:06:33.055Z,50.834740
2023-03-07T09:07:33.921Z,50.834747
2023-03-07T09:08:32.957Z,50.834755
2023-03-07T09:09:32.933Z,50.834736
2023-03-07T09:10:32.955Z,50.834759
2023-03-07T09:11:32.920Z,50.834770
2023-03-07T09:12:33.952Z,50.834778
2023-03-07T09:13:36.048Z,50.834805
2023-03-07T09:14:34.920Z,50.834797
2023-03-07T09:15:32.897Z,50.834805
2023-03-07T09:16:32.913Z,50.834785
2023-03-07T09:17:32.884Z,50.834789
2023-03-07T09:18:32.851Z,50.834789
2023-03-07T09:19:32.870Z,50.834808
2023-03-07T09:20:32.845Z,50.834782
2023-03-07T09:21:32.867Z,50.834789
2023-03-07T09:22:32.831Z,50.834812
2023-03-07T09:23:32.913Z,50.834835
2023-03-07T09:24:32.831Z,50.834846
2023-03-07T09:25:32.801Z,50.834839
2023-03-07T09:26:32.792Z,50.834797
2023-03-07T09:27:32.799Z,50.834797
2023-03-07T09:28:32.820Z,50.834774
2023-03-07T09:29:32.820Z,50.834820
2023-03-07T09:30:32.766Z,50.834843
2023-03-07T09:31:32.793Z,50.834846
2023-03-07T09:32:32.805Z,50.834827
2023-03-07T09:33:32.766Z,50.834835
2023-03-07T09:34:32.748Z,50.834827
2023-03-07T09:35:32.766Z,50.834824
2023-03-07T09:36:33.745Z,50.834816
2023-03-07T09:37:32.725Z,50.834862
2023-03-07T09:38:32.783Z,50.834850
2023-03-07T09:39:32.718Z,50.834824
2023-03-07T09:40:32.751Z,50.834850
2023-03-07T09:41:32.697Z,50.834820
2023-03-07T09:42:32.702Z,50.834843
2023-03-07T09:43:33.310Z,50.834839
2023-03-07T09:44:32.704Z,50.834843
2023-03-07T09:45:32.680Z,50.834831
2023-03-07T09:46:32.683Z,50.834793
2023-03-07T09:48:05.390Z,50.834797
2023-03-07T09:48:32.634Z,50.834839
2023-03-07T09:49:32.636Z,50.834839
2023-03-07T09:50:32.634Z,50.834820
2023-03-07T09:51:32.630Z,50.834816
2023-03-07T09:52:32.630Z,50.834801
2023-03-07T09:53:32.600Z,50.834812
2023-03-07T09:54:32.613Z,50.834835
2023-03-07T09:55:32.588Z,50.834858
2023-03-07T09:56:32.649Z,50.834843
2023-03-07T09:57:32.579Z,50.834820
2023-03-07T09:58:32.562Z,50.834835
2023-03-07T09:59:32.578Z,50.834820
2023-03-07T10:00:32.580Z,50.834808
2023-03-07T10:01:32.529Z,50.834854
2023-03-07T10:02:32.569Z,50.834816
2023-03-07T10:03:33.441Z,50.834805
2023-03-07T10:04:32.586Z,50.834824
2023-03-07T10:05:32.529Z,50.834854
2023-03-07T10:06:32.525Z,50.834820
2023-03-07T10:07:32.551Z,50.834782
2023-03-07T10:08:32.500Z,50.834801
2023-03-07T10:09:32.491Z,50.834835
2023-03-07T10:10:33.439Z,50.834843
2023-03-07T10:11:32.459Z,50.834843
2023-03-07T10:12:32.466Z,50.834827
2023-03-07T10:13:32.442Z,50.834801
2023-03-07T10:14:32.482Z,50.834820
2023-03-07T10:15:32.518Z,50.834816
2023-03-07T10:16:32.443Z,50.834827
2023-03-07T10:17:32.590Z,50.834816
2023-03-07T10:18:33.441Z,50.834812
2023-03-07T10:19:32.902Z,50.834820
2023-03-07T10:20:32.415Z,50.834820
2023-03-07T10:21:32.409Z,50.834801
2023-03-07T10:22:32.371Z,50.834835
2023-03-07T10:23:32.429Z,50.834846
2023-03-07T10:24:32.364Z,50.834858
2023-03-07T10:25:32.364Z,50.834866
2023-03-07T10:26:32.368Z,50.834854
2023-03-07T10:27:32.358Z,50.834854
2023-03-07T10:28:32.336Z,50.834843
2023-03-07T10:29:32.322Z,50.834843
2023-03-07T10:30:32.333Z,50.834862
2023-03-07T10:32:04.928Z,50.834843
2023-03-07T10:32:32.407Z,50.834862
2023-03-07T10:33:32.459Z,50.834850
2023-03-07T10:34:32.921Z,50.834850
2023-03-07T10:35:33.356Z,50.834827
2023-03-07T10:36:32.336Z,50.834846
2023-03-07T10:37:32.301Z,50.834846
2023-03-07T10:38:32.294Z,50.834854
2023-03-07T10:39:32.408Z,50.834839
2023-03-07T10:40:32.342Z,50.834843
2023-03-07T10:41:32.286Z,50.834835
2023-03-07T10:42:32.302Z,50.834824
2023-03-07T10:43:32.275Z,50.834839
2023-03-07T10:44:32.288Z,50.834835
2023-03-07T10:45:32.397Z,50.834827
2023-03-07T10:46:32.344Z,50.834820
2023-03-07T10:47:32.193Z,50.834808
2023-03-07T10:48:32.230Z,50.834831
2023-03-07T10:49:32.997Z,50.834824
2023-03-07T10:50:32.266Z,50.834824
2023-03-07T10:51:32.192Z,50.834824
2023-03-07T10:52:32.176Z,50.834816
2023-03-07T10:53:32.264Z,50.834820
2023-03-07T10:54:32.134Z,50.834820
2023-03-07T10:55:32.182Z,50.834812
2023-03-07T10:56:32.132Z,50.834816
2023-03-07T10:57:32.420Z,50.834805
2023-03-07T10:58:32.193Z,50.834816
2023-03-07T10:59:32.120Z,50.834805
2023-03-07T11:00:32.190Z,50.834827
2023-03-07T11:01:32.212Z,50.834831
2023-03-07T11:02:33.076Z,50.834824
2023-03-07T11:03:42.489Z,50.834824
2023-03-07T11:04:34.115Z,50.834831
2023-03-07T11:05:32.093Z,50.834816
2023-03-07T11:06:32.082Z,50.834824
2023-03-07T11:07:32.073Z,50.834805
2023-03-07T11:08:32.039Z,50.834831
2023-03-07T11:09:32.091Z,50.834820
2023-03-07T11:10:32.478Z,50.834827
2023-03-07T11:11:32.972Z,50.834843
2023-03-07T11:12:32.077Z,50.834816
2023-03-07T11:13:31.996Z,50.834824
2023-03-07T11:14:31.976Z,50.834839
2023-03-07T11:15:32.045Z,50.834808
2023-03-07T11:16:32.041Z,50.834835
2023-03-07T11:17:31.959Z,50.834835
2023-03-07T11:18:32.012Z,50.834824
2023-03-07T11:19:31.954Z,50.834824
2023-03-07T11:20:31.931Z,50.834843
2023-03-07T11:21:31.943Z,50.834854
2023-03-07T11:22:31.972Z,50.834846
2023-03-07T11:23:31.913Z,50.834843
2023-03-07T11:24:31.920Z,50.834843
2023-03-07T11:25:31.904Z,50.834850
2023-03-07T11:26:32.650Z,50.834820
2023-03-07T11:27:31.998Z,50.834835
2023-03-07T11:28:31.910Z,50.834831
2023-03-07T11:29:31.907Z,50.834831
2023-03-07T11:30:31.877Z,50.834827
2023-03-07T11:31:31.895Z,50.834846
2023-03-07T11:32:31.950Z,50.834862
2023-03-07T11:33:31.888Z,50.834862
2023-03-07T11:34:31.872Z,50.834869
2023-03-07T11:35:31.837Z,50.834839
2023-03-07T11:36:31.816Z,50.834831
2023-03-07T11:37:31.823Z,50.834839
2023-03-07T11:38:31.858Z,50.834862
2023-03-07T11:39:31.817Z,50.834839
2023-03-07T11:40:31.845Z,50.834869
2023-03-07T11:41:31.785Z,50.834843
2023-03-07T11:42:31.779Z,50.834824
2023-03-07T11:43:31.778Z,50.834846
2023-03-07T11:44:31.770Z,50.834843
2023-03-07T11:45:31.826Z,50.834846